createdAt,value
2017-09-27T00:00:04.382Z,14.69
2017-09-27T00:01:04.820Z,14.69
2017-09-27T00:02:05.249Z,14.69
2017-09-27T00:03:05.676Z,14.69
2017-09-27T00:04:06.124Z,14.62
2017-09-27T00:05:06.574Z,14.68
2017-09-27T00:06:06.975Z,14.82
2017-09-27T00:07:07.406Z,14.70
2017-09-27T00:08:07.836Z,14.79
2017-09-27T00:09:08.269Z,14.78
2017-09-27T00:10:08.705Z,14.78
2017-09-27T00:11:09.130Z,14.79
2017-09-27T00:12:09.562Z,14.79
2017-09-27T00:13:09.994Z,14.78
2017-09-27T00:14:10.423Z,14.79
2017-09-27T00:15:10.863Z,14.69
2017-09-27T00:16:11.287Z,14.82
2017-09-27T00:17:11.720Z,14.70
2017-09-27T00:18:12.154Z,14.73
2017-09-27T00:19:12.583Z,14.65
2017-09-27T00:20:13.013Z,14.70
2017-09-27T00:21:13.456Z,14.79
2017-09-27T00:22:13.878Z,14.70
2017-09-27T00:23:14.315Z,14.69
2017-09-27T00:24:14.742Z,14.72
2017-09-27T00:25:15.178Z,14.68
2017-09-27T00:26:15.608Z,14.70
2017-09-27T00:27:16.035Z,14.73
2017-09-27T00:28:16.470Z,14.72
2017-09-27T00:29:16.898Z,14.79
2017-09-27T00:30:17.338Z,14.82
2017-09-27T00:31:17.766Z,14.78
2017-09-27T00:32:18.198Z,14.73
2017-09-27T00:33:18.625Z,14.77
2017-09-27T00:34:19.059Z,14.66
2017-09-27T00:35:19.500Z,14.77
2017-09-27T00:36:19.926Z,14.79
2017-09-27T00:37:20.356Z,14.82
2017-09-27T00:38:20.790Z,14.78
2017-09-27T00:39:21.219Z,14.77
2017-09-27T00:40:21.652Z,14.69
2017-09-27T00:41:22.087Z,14.66
2017-09-27T00:42:22.516Z,14.73
2017-09-27T00:43:22.952Z,14.72
2017-09-27T00:44:23.382Z,14.68
2017-09-27T00:45:23.816Z,14.73
2017-09-27T00:46:24.256Z,14.69
2017-09-27T00:47:25.300Z,14.68
2017-09-27T00:48:25.108Z,14.65
2017-09-27T00:49:25.536Z,14.68
2017-09-27T00:50:25.971Z,14.81
2017-09-27T00:51:26.403Z,14.65
2017-09-27T00:52:26.839Z,14.70
2017-09-27T00:53:27.267Z,14.68
2017-09-27T00:54:27.693Z,14.65
2017-09-27T00:55:28.135Z,14.69
2017-09-27T00:56:28.574Z,14.70
2017-09-27T00:57:28.989Z,14.73
2017-09-27T00:58:29.427Z,14.65
2017-09-27T00:59:29.859Z,14.63
2017-09-27T01:00:30.289Z,14.69
2017-09-27T01:01:30.726Z,14.65
2017-09-27T01:02:31.151Z,14.78
2017-09-27T01:03:31.588Z,14.68
2017-09-27T01:04:32.017Z,14.69
2017-09-27T01:05:32.445Z,14.65
2017-09-27T01:06:32.881Z,14.62
2017-09-27T01:07:33.341Z,14.55
2017-09-27T01:08:33.772Z,14.65
2017-09-27T01:09:34.191Z,14.62
2017-09-27T01:10:34.618Z,14.66
2017-09-27T01:11:35.038Z,14.68
2017-09-27T01:12:35.475Z,14.65
2017-09-27T01:13:35.910Z,14.65
2017-09-27T01:14:36.334Z,14.68
2017-09-27T01:15:36.766Z,14.63
2017-09-27T01:16:37.213Z,14.63
2017-09-27T01:17:37.632Z,14.70
2017-09-27T01:18:38.058Z,14.58
2017-09-27T01:19:38.494Z,14.73
2017-09-27T01:20:38.925Z,14.65
2017-09-27T01:21:39.367Z,14.63
2017-09-27T01:22:39.803Z,14.78
2017-09-27T01:23:40.221Z,14.70
2017-09-27T01:24:40.659Z,14.68
2017-09-27T01:25:41.081Z,14.78
2017-09-27T01:26:41.516Z,14.70
2017-09-27T01:27:41.954Z,14.69
2017-09-27T01:28:42.380Z,14.72
2017-09-27T01:29:42.808Z,14.79
2017-09-27T01:30:43.251Z,14.78
2017-09-27T01:31:43.676Z,14.69
2017-09-27T01:32:44.108Z,14.68
2017-09-27T01:33:44.534Z,14.69
2017-09-27T01:34:44.972Z,14.69
2017-09-27T01:35:45.399Z,14.66
2017-09-27T01:36:45.831Z,14.62
2017-09-27T01:37:46.266Z,14.65
2017-09-27T01:38:46.692Z,14.62
2017-09-27T01:39:47.126Z,14.60
2017-09-27T01:40:47.574Z,14.55
2017-09-27T01:41:47.987Z,14.51
2017-09-27T01:42:48.422Z,14.53
2017-09-27T01:43:48.858Z,14.65
2017-09-27T01:44:49.284Z,14.62
2017-09-27T01:45:49.716Z,14.62
2017-09-27T01:46:50.145Z,14.62
2017-09-27T01:47:50.574Z,14.58
2017-09-27T01:48:51.011Z,14.58
2017-09-27T01:49:51.437Z,14.68
2017-09-27T01:50:51.868Z,14.72
2017-09-27T01:51:52.302Z,14.68
2017-09-27T01:52:52.736Z,14.81
2017-09-27T01:53:53.165Z,14.77
2017-09-27T01:54:53.597Z,14.77
2017-09-27T01:55:54.027Z,14.82
2017-09-27T01:56:54.463Z,14.68
2017-09-27T01:57:54.892Z,14.72
2017-09-27T01:58:55.318Z,14.69
2017-09-27T01:59:55.752Z,14.79
2017-09-27T02:00:56.187Z,14.78
2017-09-27T02:01:56.613Z,14.78
2017-09-27T02:02:57.046Z,14.77
2017-09-27T02:03:57.483Z,14.66
2017-09-27T02:04:57.911Z,14.70
2017-09-27T02:05:58.361Z,14.79
2017-09-27T02:06:58.791Z,14.81
2017-09-27T02:07:59.201Z,14.66
2017-09-27T02:08:59.634Z,14.82
2017-09-27T02:10:00.071Z,14.72
2017-09-27T02:11:00.500Z,14.84
2017-09-27T02:12:00.933Z,14.72
2017-09-27T02:13:01.369Z,14.79
2017-09-27T02:14:01.798Z,14.89
2017-09-27T02:15:02.228Z,14.89
2017-09-27T02:16:02.669Z,14.91
2017-09-27T02:17:03.089Z,14.86
2017-09-27T02:18:03.519Z,15.00
2017-09-27T02:19:03.951Z,14.86
2017-09-27T02:20:04.389Z,14.79
2017-09-27T02:21:04.818Z,14.84
2017-09-27T02:22:05.248Z,14.88
2017-09-27T02:23:05.684Z,14.84
2017-09-27T02:24:06.117Z,14.91
2017-09-27T02:25:06.542Z,14.81
2017-09-27T02:26:06.982Z,14.91
2017-09-27T02:27:07.408Z,14.81
2017-09-27T02:28:07.840Z,14.82
2017-09-27T02:29:08.269Z,14.82
2017-09-27T02:30:08.719Z,14.82
2017-09-27T02:31:09.135Z,14.84
2017-09-27T02:32:09.566Z,14.84
2017-09-27T02:33:09.999Z,14.86
2017-09-27T02:34:10.431Z,14.99
2017-09-27T02:35:10.859Z,14.89
2017-09-27T02:36:11.294Z,14.88
2017-09-27T02:37:11.728Z,15.04
2017-09-27T02:38:12.158Z,15.03
2017-09-27T02:39:12.611Z,15.00
2017-09-27T02:40:13.027Z,15.04
2017-09-27T02:41:13.457Z,15.02
2017-09-27T02:42:13.892Z,15.04
2017-09-27T02:43:14.319Z,14.94
2017-09-27T02:44:14.751Z,15.03
2017-09-27T02:45:15.188Z,15.03
2017-09-27T02:46:15.619Z,14.94
2017-09-27T02:47:16.047Z,14.89
2017-09-27T02:48:16.485Z,14.94
2017-09-27T02:49:16.919Z,14.91
2017-09-27T02:50:17.359Z,14.96
2017-09-27T02:51:17.773Z,14.88
2017-09-27T02:52:18.244Z,14.84
2017-09-27T02:53:18.640Z,14.81
2017-09-27T02:54:19.075Z,14.84
2017-09-27T02:55:19.512Z,14.84
2017-09-27T02:56:19.941Z,14.96
2017-09-27T02:57:20.372Z,14.82
2017-09-27T02:58:20.800Z,14.94
2017-09-27T02:59:21.235Z,14.82
2017-09-27T03:00:21.669Z,14.81
2017-09-27T03:01:22.095Z,14.99
2017-09-27T03:02:22.530Z,14.89
2017-09-27T03:03:22.957Z,14.94
2017-09-27T03:04:23.396Z,14.96
2017-09-27T03:05:23.828Z,14.88
2017-09-27T03:06:24.261Z,14.99
2017-09-27T03:07:24.692Z,14.99
2017-09-27T03:08:25.126Z,15.07
2017-09-27T03:09:25.556Z,14.97
2017-09-27T03:10:25.992Z,14.88
2017-09-27T03:11:26.419Z,14.97
2017-09-27T03:12:26.855Z,14.97
2017-09-27T03:13:27.289Z,15.06
2017-09-27T03:14:27.719Z,14.84
2017-09-27T03:15:28.147Z,14.72
2017-09-27T03:16:28.583Z,14.69
2017-09-27T03:17:29.031Z,14.60
2017-09-27T03:18:29.449Z,14.70
2017-09-27T03:19:29.876Z,14.79
2017-09-27T03:20:30.310Z,14.70
2017-09-27T03:21:30.744Z,14.77
2017-09-27T03:22:31.174Z,14.82
2017-09-27T03:23:31.612Z,14.82
2017-09-27T03:24:32.045Z,14.79
2017-09-27T03:25:32.509Z,14.84
2017-09-27T03:26:32.929Z,14.84
2017-09-27T03:27:33.336Z,14.96
2017-09-27T03:28:33.777Z,14.86
2017-09-27T03:29:34.205Z,14.94
2017-09-27T03:30:34.639Z,14.86
2017-09-27T03:31:35.075Z,14.78
2017-09-27T03:32:35.505Z,14.77
2017-09-27T03:33:35.929Z,14.77
2017-09-27T03:34:36.361Z,14.77
2017-09-27T03:35:36.814Z,14.73
2017-09-27T03:36:37.228Z,14.72
2017-09-27T03:37:37.659Z,14.73
2017-09-27T03:38:38.089Z,14.82
2017-09-27T03:39:38.520Z,14.84
2017-09-27T03:40:38.955Z,14.84
2017-09-27T03:41:39.387Z,14.82
2017-09-27T03:42:39.816Z,14.81
2017-09-27T03:43:40.252Z,14.84
2017-09-27T03:44:40.683Z,14.81
2017-09-27T03:45:41.110Z,14.81
2017-09-27T03:46:41.545Z,14.82
2017-09-27T03:47:41.976Z,14.77
2017-09-27T03:48:42.421Z,14.77
2017-09-27T03:49:42.841Z,14.81
2017-09-27T03:50:43.275Z,14.69
2017-09-27T03:51:43.700Z,14.70
2017-09-27T03:52:44.138Z,14.66
2017-09-27T03:53:44.573Z,14.66
2017-09-27T03:54:45.003Z,14.72
2017-09-27T03:55:45.438Z,14.73
2017-09-27T03:56:45.866Z,14.77
2017-09-27T03:57:46.295Z,14.63
2017-09-27T03:58:46.737Z,14.66
2017-09-27T03:59:47.163Z,14.62
2017-09-27T04:00:47.606Z,14.70
2017-09-27T04:01:48.036Z,14.70
2017-09-27T04:02:48.454Z,14.65
2017-09-27T04:03:48.890Z,14.69
2017-09-27T04:04:49.316Z,14.68
2017-09-27T04:05:49.751Z,14.69
2017-09-27T04:06:50.180Z,14.69
2017-09-27T04:07:50.612Z,14.68
2017-09-27T04:08:51.042Z,14.51
2017-09-27T04:09:51.480Z,14.63
2017-09-27T04:10:51.909Z,14.73
2017-09-27T04:11:52.340Z,14.65
2017-09-27T04:12:52.778Z,14.73
2017-09-27T04:13:53.209Z,14.68
2017-09-27T04:14:53.635Z,14.73
2017-09-27T04:15:54.071Z,14.69
2017-09-27T04:16:54.505Z,14.69
2017-09-27T04:17:54.941Z,14.73
2017-09-27T04:18:55.368Z,14.63
2017-09-27T04:19:55.796Z,14.69
2017-09-27T04:20:56.236Z,14.68
2017-09-27T04:21:56.666Z,14.69
2017-09-27T04:22:57.092Z,14.66
2017-09-27T04:23:57.528Z,14.66
2017-09-27T04:24:57.960Z,14.68
2017-09-27T04:25:58.951Z,14.72
2017-09-27T04:26:58.828Z,14.69
2017-09-27T04:27:59.255Z,14.66
2017-09-27T04:28:59.683Z,14.59
2017-09-27T04:30:00.121Z,14.66
2017-09-27T04:31:00.551Z,14.77
2017-09-27T04:32:00.987Z,14.78
2017-09-27T04:33:01.415Z,14.69
2017-09-27T04:34:01.852Z,14.68
2017-09-27T04:35:02.272Z,14.70
2017-09-27T04:36:02.705Z,14.70
2017-09-27T04:37:03.145Z,14.78
2017-09-27T04:38:03.573Z,14.66
2017-09-27T04:39:04.003Z,14.72
2017-09-27T04:40:04.439Z,14.70
2017-09-27T04:41:04.868Z,14.73
2017-09-27T04:42:05.302Z,14.70
2017-09-27T04:43:05.733Z,14.70
2017-09-27T04:44:06.162Z,14.72
2017-09-27T04:45:06.597Z,14.68
2017-09-27T04:46:07.028Z,14.51
2017-09-27T04:47:07.466Z,14.70
2017-09-27T04:48:07.892Z,14.69
2017-09-27T04:49:08.321Z,14.70
2017-09-27T04:50:08.756Z,14.70
2017-09-27T04:51:09.197Z,14.59
2017-09-27T04:52:09.620Z,14.59
2017-09-27T04:53:10.051Z,14.69
2017-09-27T04:54:10.483Z,14.48
2017-09-27T04:55:10.913Z,14.54
2017-09-27T04:56:11.345Z,14.70
2017-09-27T04:57:11.788Z,14.68
2017-09-27T04:58:12.216Z,14.62
2017-09-27T04:59:12.647Z,14.69
2017-09-27T05:00:13.112Z,14.63
2017-09-27T05:01:13.512Z,14.62
2017-09-27T05:02:13.937Z,14.63
2017-09-27T05:03:14.368Z,14.62
2017-09-27T05:04:14.800Z,14.70
2017-09-27T05:05:15.240Z,14.63
2017-09-27T05:06:15.665Z,14.62
2017-09-27T05:07:16.103Z,14.66
2017-09-27T05:08:16.537Z,14.73
2017-09-27T05:09:16.971Z,14.72
2017-09-27T05:10:17.396Z,14.59
2017-09-27T05:11:17.823Z,14.68
2017-09-27T05:12:18.258Z,14.69
2017-09-27T05:13:18.696Z,14.68
2017-09-27T05:14:19.121Z,14.60
2017-09-27T05:15:19.552Z,14.68
2017-09-27T05:16:19.984Z,14.62
2017-09-27T05:17:20.420Z,14.65
2017-09-27T05:18:20.847Z,14.60
2017-09-27T05:19:21.281Z,14.55
2017-09-27T05:20:21.717Z,14.53
2017-09-27T05:21:22.149Z,14.62
2017-09-27T05:22:22.578Z,14.65
2017-09-27T05:23:23.016Z,14.66
2017-09-27T05:24:23.444Z,14.66
2017-09-27T05:25:23.874Z,14.65
2017-09-27T05:26:24.302Z,14.54
2017-09-27T05:27:24.744Z,14.59
2017-09-27T05:28:25.168Z,14.63
2017-09-27T05:29:25.599Z,14.53
2017-09-27T05:30:26.034Z,14.70
2017-09-27T05:31:26.460Z,14.63
2017-09-27T05:32:26.894Z,14.68
2017-09-27T05:33:27.329Z,14.78
2017-09-27T05:34:27.762Z,14.66
2017-09-27T05:35:28.187Z,14.78
2017-09-27T05:36:29.410Z,14.78
2017-09-27T05:37:29.053Z,14.73
2017-09-27T05:38:29.486Z,14.65
2017-09-27T05:39:29.920Z,14.82
2017-09-27T05:40:30.354Z,14.79
2017-09-27T05:41:30.787Z,14.78
2017-09-27T05:42:31.217Z,14.77
2017-09-27T05:43:31.644Z,14.82
2017-09-27T05:44:32.081Z,14.82
2017-09-27T05:45:32.509Z,14.84
2017-09-27T05:46:32.957Z,14.77
2017-09-27T05:47:33.376Z,14.78
2017-09-27T05:48:33.808Z,14.89
2017-09-27T05:49:34.238Z,14.81
2017-09-27T05:50:34.667Z,14.82
2017-09-27T05:51:35.098Z,14.84
2017-09-27T05:52:35.533Z,14.86
2017-09-27T05:53:35.972Z,14.81
2017-09-27T05:54:36.401Z,14.81
2017-09-27T05:55:36.843Z,14.73
2017-09-27T05:56:37.259Z,14.73
2017-09-27T05:57:37.697Z,14.77
2017-09-27T05:58:38.130Z,14.82
2017-09-27T05:59:38.561Z,14.96
2017-09-27T06:00:38.993Z,14.81
2017-09-27T06:01:39.425Z,14.86
2017-09-27T06:02:39.856Z,14.92
2017-09-27T06:03:40.290Z,15.02
2017-09-27T06:04:40.717Z,14.89
2017-09-27T06:05:41.167Z,14.91
2017-09-27T06:06:41.588Z,14.89
2017-09-27T06:07:42.017Z,15.02
2017-09-27T06:08:42.458Z,14.89
2017-09-27T06:09:42.884Z,14.89
2017-09-27T06:10:43.316Z,14.91
2017-09-27T06:11:43.743Z,15.03
2017-09-27T06:12:44.177Z,14.81
2017-09-27T06:13:44.612Z,14.89
2017-09-27T06:14:45.060Z,14.99
2017-09-27T06:15:45.473Z,14.96
2017-09-27T06:16:45.912Z,14.84
2017-09-27T06:17:46.342Z,14.85
2017-09-27T06:18:46.776Z,14.94
2017-09-27T06:19:47.205Z,14.94
2017-09-27T06:20:47.640Z,14.88
2017-09-27T06:21:48.073Z,14.99
2017-09-27T06:22:48.511Z,15.00
2017-09-27T06:23:48.934Z,15.00
2017-09-27T06:24:49.376Z,15.07
2017-09-27T06:25:49.802Z,15.15
2017-09-27T06:26:50.230Z,15.07
2017-09-27T06:27:50.667Z,15.02
2017-09-27T06:28:51.095Z,14.97
2017-09-27T06:29:51.529Z,15.06
2017-09-27T06:30:51.961Z,15.07
2017-09-27T06:31:52.398Z,15.15
2017-09-27T06:32:52.824Z,15.22
2017-09-27T06:33:53.276Z,15.24
2017-09-27T06:34:53.723Z,15.18
2017-09-27T06:35:54.144Z,15.21
2017-09-27T06:36:54.560Z,15.22
2017-09-27T06:37:55.024Z,15.27
2017-09-27T06:38:55.426Z,15.21
2017-09-27T06:39:55.853Z,15.21
2017-09-27T06:40:56.299Z,15.18
2017-09-27T06:41:56.720Z,15.22
2017-09-27T06:42:57.166Z,15.24
2017-09-27T06:43:57.587Z,15.22
2017-09-27T06:44:58.015Z,15.25
2017-09-27T06:45:58.610Z,15.21
2017-09-27T06:46:58.876Z,15.35
2017-09-27T06:47:59.325Z,15.21
2017-09-27T06:48:59.745Z,15.15
2017-09-27T06:50:00.179Z,15.17
2017-09-27T06:51:00.616Z,15.14
2017-09-27T06:52:01.045Z,15.14
2017-09-27T06:53:01.492Z,15.09
2017-09-27T06:54:01.912Z,15.09
2017-09-27T06:55:02.361Z,15.14
2017-09-27T06:56:02.787Z,15.18
2017-09-27T06:57:03.212Z,14.99
2017-09-27T06:58:03.687Z,15.14
2017-09-27T06:59:04.077Z,15.15
2017-09-27T07:00:04.507Z,15.07
2017-09-27T07:01:04.945Z,15.06
2017-09-27T07:02:05.369Z,15.02
2017-09-27T07:03:05.835Z,15.14
2017-09-27T07:04:06.236Z,15.21
2017-09-27T07:05:06.716Z,15.21
2017-09-27T07:06:07.112Z,15.27
2017-09-27T07:07:07.564Z,15.10
2017-09-27T07:08:07.999Z,15.18
2017-09-27T07:09:08.436Z,15.09
2017-09-27T07:10:08.875Z,15.24
2017-09-27T07:11:09.292Z,15.14
2017-09-27T07:12:09.720Z,15.15
2017-09-27T07:13:10.154Z,15.17
2017-09-27T07:14:10.588Z,15.14
2017-09-27T07:15:11.029Z,15.24
2017-09-27T07:16:11.466Z,15.09
2017-09-27T07:17:11.894Z,15.24
2017-09-27T07:18:12.319Z,15.22
2017-09-27T07:19:12.751Z,15.29
2017-09-27T07:20:13.194Z,15.22
2017-09-27T07:21:13.611Z,15.18
2017-09-27T07:22:14.052Z,15.24
2017-09-27T07:23:14.485Z,15.14
2017-09-27T07:24:14.915Z,15.27
2017-09-27T07:25:15.373Z,15.29
2017-09-27T07:26:15.775Z,15.36
2017-09-27T07:27:16.220Z,15.43
2017-09-27T07:28:16.690Z,15.44
2017-09-27T07:29:17.126Z,15.42
2017-09-27T07:30:17.512Z,15.21
2017-09-27T07:31:17.945Z,15.33
2017-09-27T07:32:18.387Z,15.46
2017-09-27T07:33:18.811Z,15.47
2017-09-27T07:34:19.253Z,15.51
2017-09-27T07:35:19.689Z,15.49
2017-09-27T07:36:20.135Z,15.54
2017-09-27T07:37:20.545Z,15.52
2017-09-27T07:38:20.962Z,15.51
2017-09-27T07:39:21.412Z,15.58
2017-09-27T07:40:21.861Z,15.52
2017-09-27T07:41:22.259Z,15.65
2017-09-27T07:42:22.701Z,15.80
2017-09-27T07:43:23.126Z,15.84
2017-09-27T07:44:23.561Z,15.61
2017-09-27T07:45:23.999Z,15.58
2017-09-27T07:46:24.435Z,15.77
2017-09-27T07:47:24.860Z,15.75
2017-09-27T07:48:25.324Z,15.94
2017-09-27T07:49:25.729Z,15.92
2017-09-27T07:50:26.212Z,15.90
2017-09-27T07:51:26.596Z,16.01
2017-09-27T07:52:27.033Z,16.12
2017-09-27T07:53:27.464Z,15.95
2017-09-27T07:54:27.938Z,15.91
2017-09-27T07:55:28.373Z,15.82
2017-09-27T07:56:28.799Z,15.84
2017-09-27T07:57:29.228Z,15.97
2017-09-27T07:58:29.642Z,15.73
2017-09-27T07:59:30.098Z,15.68
2017-09-27T08:00:30.594Z,15.77
2017-09-27T08:01:30.958Z,15.76
2017-09-27T08:02:31.416Z,15.94
2017-09-27T08:03:31.813Z,15.97
2017-09-27T08:04:32.250Z,15.94
2017-09-27T08:05:32.680Z,15.94
2017-09-27T08:06:33.124Z,16.01
2017-09-27T08:07:33.604Z,16.09
2017-09-27T08:08:34.006Z,16.01
2017-09-27T08:09:34.437Z,16.13
2017-09-27T08:10:34.850Z,16.24
2017-09-27T08:11:35.295Z,16.35
2017-09-27T08:12:35.737Z,16.32
2017-09-27T08:13:36.162Z,16.50
2017-09-27T08:14:36.584Z,16.54
2017-09-27T08:15:37.039Z,16.64
2017-09-27T08:16:37.461Z,16.68
2017-09-27T08:17:37.891Z,16.53
2017-09-27T08:18:38.356Z,16.65
2017-09-27T08:19:38.776Z,16.65
2017-09-27T08:20:39.211Z,16.66
2017-09-27T08:21:39.635Z,16.60
2017-09-27T08:22:40.072Z,16.69
2017-09-27T08:23:40.502Z,16.65
2017-09-27T08:24:40.940Z,16.75
2017-09-27T08:25:41.373Z,16.64
2017-09-27T08:26:41.808Z,16.43
2017-09-27T08:27:42.246Z,16.23
2017-09-27T08:28:42.678Z,16.47
2017-09-27T08:29:43.109Z,16.43
2017-09-27T08:30:43.569Z,16.43
2017-09-27T08:31:43.984Z,16.58
2017-09-27T08:32:44.432Z,16.51
2017-09-27T08:33:44.878Z,16.46
2017-09-27T08:34:45.297Z,16.50
2017-09-27T08:35:45.729Z,16.50
2017-09-27T08:36:46.160Z,16.49
2017-09-27T08:37:46.592Z,16.42
2017-09-27T08:38:47.030Z,16.28
2017-09-27T08:39:47.460Z,16.49
2017-09-27T08:40:47.904Z,16.64
2017-09-27T08:41:48.337Z,16.53
2017-09-27T08:42:48.767Z,16.66
2017-09-27T08:43:49.206Z,16.84
2017-09-27T08:44:49.645Z,17.12
2017-09-27T08:45:50.071Z,17.23
2017-09-27T08:46:50.509Z,17.27
2017-09-27T08:47:50.945Z,17.27
2017-09-27T08:48:51.379Z,17.34
2017-09-27T08:49:51.817Z,17.20
2017-09-27T08:50:52.252Z,17.09
2017-09-27T08:51:52.692Z,17.24
2017-09-27T08:52:53.125Z,17.34
2017-09-27T08:53:53.561Z,17.27
2017-09-27T08:54:54.000Z,17.24
2017-09-27T08:55:54.449Z,17.34
2017-09-27T08:56:54.872Z,17.30
2017-09-27T08:57:55.303Z,17.27
2017-09-27T08:58:55.743Z,17.41
2017-09-27T08:59:56.195Z,17.34
2017-09-27T09:00:56.616Z,17.38
2017-09-27T09:01:57.067Z,17.38
2017-09-27T09:02:57.489Z,17.38
2017-09-27T09:03:57.933Z,17.44
2017-09-27T09:04:58.368Z,17.56
2017-09-27T09:05:58.804Z,17.52
2017-09-27T09:06:59.235Z,17.76
2017-09-27T09:07:59.672Z,17.97
2017-09-27T09:09:00.114Z,18.16
2017-09-27T09:10:00.549Z,18.19
2017-09-27T09:11:00.990Z,18.28
2017-09-27T09:12:01.426Z,18.25
2017-09-27T09:13:01.867Z,18.33
2017-09-27T09:14:02.300Z,18.10
2017-09-27T09:15:02.741Z,18.08
2017-09-27T09:16:03.177Z,18.10
2017-09-27T09:17:03.614Z,17.95
2017-09-27T09:18:04.050Z,18.03
2017-09-27T09:19:04.499Z,17.98
2017-09-27T09:20:04.931Z,17.76
2017-09-27T09:21:05.387Z,17.92
2017-09-27T09:22:05.836Z,17.95
2017-09-27T09:23:06.255Z,17.83
2017-09-27T09:24:06.687Z,17.79
2017-09-27T09:25:07.125Z,17.97
2017-09-27T09:26:07.558Z,17.85
2017-09-27T09:27:07.999Z,18.04
2017-09-27T09:28:08.436Z,18.07
2017-09-27T09:29:08.873Z,18.15
2017-09-27T09:30:09.329Z,18.11
2017-09-27T09:31:09.750Z,18.23
2017-09-27T09:32:10.187Z,18.43
2017-09-27T09:33:10.628Z,18.55
2017-09-27T09:34:11.067Z,18.62
2017-09-27T09:35:11.507Z,18.89
2017-09-27T09:36:11.946Z,19.15
2017-09-27T09:37:12.386Z,19.19
2017-09-27T09:38:12.826Z,19.31
2017-09-27T09:39:13.261Z,19.30
2017-09-27T09:40:13.711Z,19.26
2017-09-27T09:41:14.145Z,19.21
2017-09-27T09:42:14.585Z,19.34
2017-09-27T09:43:15.025Z,19.29
2017-09-27T09:44:15.469Z,19.22
2017-09-27T09:45:15.909Z,19.26
2017-09-27T09:46:16.346Z,19.18
2017-09-27T09:47:16.791Z,19.26
2017-09-27T09:48:17.229Z,19.56
2017-09-27T09:49:17.671Z,20.09
2017-09-27T09:50:18.116Z,20.11
2017-09-27T09:51:18.564Z,20.19
2017-09-27T09:52:18.998Z,20.31
2017-09-27T09:53:19.435Z,20.24
2017-09-27T09:54:19.888Z,20.09
2017-09-27T09:55:20.328Z,20.19
2017-09-27T09:56:20.776Z,19.94
2017-09-27T09:57:21.210Z,20.16
2017-09-27T09:58:21.652Z,20.25
2017-09-27T09:59:22.095Z,20.29
2017-09-27T10:00:22.538Z,20.43
2017-09-27T10:01:22.976Z,19.95
2017-09-27T10:02:23.426Z,19.04
2017-09-27T10:03:23.871Z,19.31
2017-09-27T10:04:24.313Z,19.47
2017-09-27T10:05:24.751Z,19.34
2017-09-27T10:06:25.195Z,19.29
2017-09-27T10:07:25.634Z,19.21
2017-09-27T10:08:26.079Z,19.31
2017-09-27T10:09:26.517Z,19.39
2017-09-27T10:10:26.959Z,19.59
2017-09-27T10:11:27.404Z,20.03
2017-09-27T10:12:27.848Z,20.19
2017-09-27T10:13:28.288Z,20.43
2017-09-27T10:14:28.725Z,20.48
2017-09-27T10:15:29.169Z,20.09
2017-09-27T10:16:29.616Z,20.14
2017-09-27T10:17:30.054Z,20.16
2017-09-27T10:18:30.498Z,20.31
2017-09-27T10:19:30.937Z,20.13
2017-09-27T10:20:31.392Z,20.43
2017-09-27T10:21:31.820Z,20.25
2017-09-27T10:22:32.265Z,20.58
2017-09-27T10:23:32.712Z,20.60
2017-09-27T10:24:33.148Z,20.81
2017-09-27T10:25:33.608Z,20.85
2017-09-27T10:26:34.039Z,21.00
2017-09-27T10:27:34.478Z,21.14
2017-09-27T10:28:34.925Z,20.66
2017-09-27T10:29:35.364Z,20.81
2017-09-27T10:30:35.810Z,20.70
2017-09-27T10:31:36.257Z,20.51
2017-09-27T10:32:36.694Z,20.48
2017-09-27T10:33:37.144Z,20.44
2017-09-27T10:34:37.591Z,20.36
2017-09-27T10:35:38.026Z,20.29
2017-09-27T10:36:38.483Z,20.52
2017-09-27T10:37:38.913Z,20.50
2017-09-27T10:38:39.365Z,20.40
2017-09-27T10:39:39.802Z,20.43
2017-09-27T10:40:40.243Z,20.34
2017-09-27T10:41:40.684Z,20.19
2017-09-27T10:42:41.127Z,20.60
2017-09-27T10:43:41.578Z,20.80
2017-09-27T10:44:42.036Z,20.28
2017-09-27T10:45:42.458Z,20.80
2017-09-27T10:46:42.923Z,20.75
2017-09-27T10:47:43.356Z,20.77
2017-09-27T10:48:43.795Z,20.70
2017-09-27T10:49:44.235Z,20.55
2017-09-27T10:50:44.674Z,20.62
2017-09-27T10:51:45.129Z,20.56
2017-09-27T10:52:45.571Z,20.52
2017-09-27T10:53:46.009Z,20.22
2017-09-27T10:54:46.454Z,20.44
2017-09-27T10:55:46.895Z,20.62
2017-09-27T10:56:47.346Z,20.58
2017-09-27T10:57:47.776Z,20.87
2017-09-27T10:58:48.233Z,20.87
2017-09-27T10:59:48.668Z,20.87
2017-09-27T11:00:49.160Z,20.72
2017-09-27T11:01:49.555Z,20.80
2017-09-27T11:02:49.999Z,20.69
2017-09-27T11:03:50.446Z,20.36
2017-09-27T11:04:50.884Z,20.43
2017-09-27T11:05:51.324Z,20.44
2017-09-27T11:06:51.771Z,20.31
2017-09-27T11:07:52.214Z,20.11
2017-09-27T11:08:52.662Z,20.26
2017-09-27T11:09:53.108Z,20.25
2017-09-27T11:10:53.545Z,20.22
2017-09-27T11:11:53.985Z,20.18
2017-09-27T11:12:54.431Z,20.04
2017-09-27T11:13:54.872Z,20.21
2017-09-27T11:14:55.340Z,20.28
2017-09-27T11:15:55.755Z,20.40
2017-09-27T11:16:56.194Z,20.75
2017-09-27T11:17:56.637Z,20.88
2017-09-27T11:18:57.084Z,20.96
2017-09-27T11:19:57.526Z,21.05
2017-09-27T11:20:57.969Z,21.20
2017-09-27T11:21:58.414Z,21.14
2017-09-27T11:22:58.858Z,21.18
2017-09-27T11:23:59.305Z,21.14
2017-09-27T11:24:59.746Z,21.17
2017-09-27T11:26:00.190Z,20.97
2017-09-27T11:27:00.633Z,21.25
2017-09-27T11:28:01.071Z,21.35
2017-09-27T11:29:01.518Z,21.48
2017-09-27T11:30:01.968Z,21.40
2017-09-27T11:31:02.412Z,21.46
2017-09-27T11:32:02.848Z,21.43
2017-09-27T11:33:03.296Z,21.46
2017-09-27T11:34:03.742Z,21.55
2017-09-27T11:35:04.196Z,21.58
2017-09-27T11:36:04.626Z,21.66
2017-09-27T11:37:05.106Z,21.72
2017-09-27T11:38:05.512Z,21.61
2017-09-27T11:39:05.965Z,21.51
2017-09-27T11:40:06.404Z,21.43
2017-09-27T11:41:06.851Z,21.35
2017-09-27T11:42:07.291Z,21.85
2017-09-27T11:43:07.742Z,21.85
2017-09-27T11:44:08.187Z,21.98
2017-09-27T11:45:08.630Z,21.70
2017-09-27T11:46:09.070Z,22.07
2017-09-27T11:47:09.526Z,21.58
2017-09-27T11:48:09.964Z,21.82
2017-09-27T11:49:10.412Z,21.95
2017-09-27T11:50:10.856Z,22.07
2017-09-27T11:51:11.300Z,22.07
2017-09-27T11:52:11.753Z,22.10
2017-09-27T11:53:12.194Z,21.46
2017-09-27T11:54:12.638Z,21.70
2017-09-27T11:55:13.084Z,21.72
2017-09-27T11:56:13.533Z,21.93
2017-09-27T11:57:13.987Z,21.82
2017-09-27T11:58:14.423Z,21.75
2017-09-27T11:59:14.867Z,21.50
2017-09-27T12:00:15.320Z,21.40
2017-09-27T12:01:15.759Z,21.58
2017-09-27T12:02:16.201Z,21.61
2017-09-27T12:03:16.644Z,21.43
2017-09-27T12:04:17.097Z,21.62
2017-09-27T12:05:17.543Z,21.83
2017-09-27T12:06:17.981Z,21.76
2017-09-27T12:07:18.428Z,21.57
2017-09-27T12:08:18.874Z,21.66
2017-09-27T12:09:19.314Z,21.76
2017-09-27T12:10:19.762Z,21.67
2017-09-27T12:11:20.206Z,21.70
2017-09-27T12:12:20.657Z,21.69
2017-09-27T12:13:21.096Z,21.42
2017-09-27T12:14:21.539Z,21.33
2017-09-27T12:15:21.982Z,21.24
2017-09-27T12:16:22.452Z,21.18
2017-09-27T12:17:22.888Z,21.21
2017-09-27T12:18:23.325Z,21.15
2017-09-27T12:19:23.768Z,21.12
2017-09-27T12:20:24.204Z,21.21
2017-09-27T12:21:24.651Z,21.35
2017-09-27T12:22:25.089Z,21.25
2017-09-27T12:23:25.536Z,21.45
2017-09-27T12:24:25.978Z,21.35
2017-09-27T12:25:26.432Z,21.36
2017-09-27T12:26:26.874Z,21.30
2017-09-27T12:27:27.319Z,21.14
2017-09-27T12:28:27.752Z,21.14
2017-09-27T12:29:28.195Z,20.99
2017-09-27T12:30:28.634Z,20.85
2017-09-27T12:31:29.087Z,20.92
2017-09-27T12:32:29.535Z,20.84
2017-09-27T12:33:29.968Z,20.70
2017-09-27T12:34:30.408Z,20.44
2017-09-27T12:35:30.865Z,20.59
2017-09-27T12:36:31.297Z,20.85
2017-09-27T12:37:31.747Z,20.96
2017-09-27T12:38:32.175Z,21.06
2017-09-27T12:39:32.622Z,20.99
2017-09-27T12:40:33.686Z,21.06
2017-09-27T12:41:33.512Z,21.29
2017-09-27T12:42:33.946Z,21.15
2017-09-27T12:43:34.386Z,20.96
2017-09-27T12:44:34.835Z,21.14
2017-09-27T12:45:35.269Z,21.07
2017-09-27T12:46:35.711Z,21.03
2017-09-27T12:47:36.153Z,21.12
2017-09-27T12:48:36.597Z,21.03
2017-09-27T12:49:37.044Z,20.99
2017-09-27T12:50:37.485Z,21.21
2017-09-27T12:51:37.924Z,20.93
2017-09-27T12:52:38.396Z,21.00
2017-09-27T12:53:38.816Z,21.09
2017-09-27T12:54:39.264Z,21.20
2017-09-27T12:55:39.701Z,21.12
2017-09-27T12:56:40.136Z,21.24
2017-09-27T12:57:40.585Z,21.21